Time;durP1;ratioP1;P1;durP2;ratioP2;P2;SDS_P1;SDS_P2;PMS_P1;PMS_P2;Temp;Humidity;BMP_temperature;BMP_pressure;BME280_temperature;BME280_humidity;BME280_pressure;Samples;Min_cycle;Max_cycle;Signal;HPM_P1;HPM_P2
2022/01/19 00:02:24;;;;;;;5.77;1.80;;;;;;;-2.60;55.21;101567.88;126315;1099;104165;-80
2022/01/19 00:04:55;;;;;;;3.80;2.03;;;;;;;-2.59;54.34;101579.05;126300;1099;104190;-80
2022/01/19 00:07:27;;;;;;;9.07;2.47;;;;;;;-2.62;54.08;101577.05;126282;1099;104153;-79
2022/01/19 00:10:04;;;;;;;2.43;1.57;;;;;;;-2.64;54.62;101593.98;126314;1099;104274;-80
2022/01/19 00:12:36;;;;;;;5.97;2.00;;;;;;;-2.65;54.10;101584.48;126340;1099;104261;-80
2022/01/19 00:15:12;;;;;;;5.83;2.10;;;;;;;-2.65;54.76;101599.89;126308;1099;104155;-80
2022/01/19 00:17:44;;;;;;;3.77;1.60;;;;;;;-2.67;54.38;101608.17;126322;1099;104226;-80
2022/01/19 00:20:15;;;;;;;8.40;2.27;;;;;;;-2.69;55.12;101602.87;126359;1099;102948;-80
2022/01/19 00:22:47;;;;;;;2.37;1.53;;;;;;;-2.69;54.79;101607.11;126346;1099;104191;-79
2022/01/19 00:25:18;;;;;;;5.80;1.80;;;;;;;-2.71;54.21;101607.85;126315;1099;104188;-80
2022/01/19 00:27:54;;;;;;;6.03;1.70;;;;;;;-2.72;54.98;101606.02;126314;1099;104278;-80
2022/01/19 00:30:32;;;;;;;4.40;1.90;;;;;;;-2.74;55.54;101597.25;126296;1099;104178;-80
2022/01/19 00:33:03;;;;;;;3.57;1.80;;;;;;;-2.76;54.65;101611.60;126273;1099;104155;-80
2022/01/19 00:35:36;;;;;;;7.70;2.03;;;;;;;-2.75;54.34;101617.64;126223;1099;104220;-80
2022/01/19 00:38:10;;;;;;;4.00;1.90;;;;;;;-2.76;55.28;101618.38;126384;1099;104175;-80
2022/01/19 00:40:42;;;;;;;4.93;1.50;;;;;;;-2.77;54.48;101607.20;126383;1099;104345;-80
2022/01/19 00:43:15;;;;;;;6.00;1.90;;;;;;;-2.77;55.54;101621.72;126306;1099;104155;-80
2022/01/19 00:45:47;;;;;;;4.70;1.50;;;;;;;-2.79;55.00;101618.05;126355;1099;105496;-80
2022/01/19 00:48:18;;;;;;;7.43;1.87;;;;;;;-2.80;54.77;101621.39;126322;1099;104666;-80
2022/01/19 00:50:51;;;;;;;4.27;1.73;;;;;;;-2.81;54.66;101615.31;126328;1099;104171;-81
2022/01/19 00:53:23;;;;;;;4.37;2.10;;;;;;;-2.84;55.80;101603.81;126374;1099;104248;-81
2022/01/19 00:55:56;;;;;;;6.27;2.30;;;;;;;-2.85;54.48;101602.91;126297;1099;104201;-80
2022/01/19 00:58:30;;;;;;;7.17;2.10;;;;;;;-2.86;55.36;101610.45;126376;1099;104251;-80
2022/01/19 01:01:04;;;;;;;4.93;1.63;;;;;;;-2.87;55.37;101596.67;126344;1099;104289;-80
2022/01/19 01:03:38;;;;;;;5.83;2.17;;;;;;;-2.90;56.12;101597.28;126346;1099;104175;-80
2022/01/19 01:06:09;;;;;;;6.47;1.77;;;;;;;-2.91;55.13;101597.13;126318;1099;104284;-80
2022/01/19 01:08:43;;;;;;;7.73;2.47;;;;;;;-2.93;55.26;101599.52;126353;1099;104216;-80
2022/01/19 01:11:17;;;;;;;2.87;1.73;;;;;;;-2.93;56.52;101583.18;126338;1099;104146;-80
2022/01/19 01:16:40;;;;;;;6.77;2.23;;;;;;;-2.95;55.50;101600.09;125767;1099;104146;-81
2022/01/19 01:19:13;;;;;;;4.50;2.08;;;;;;;-2.99;55.97;101605.64;126361;1099;104143;-79
2022/01/19 01:21:46;;;;;;;4.23;2.30;;;;;;;-3.02;56.96;101606.25;126241;1098;104197;-80
2022/01/19 01:24:20;;;;;;;7.28;2.33;;;;;;;-3.05;56.08;101603.34;126365;1099;104140;-80
2022/01/19 01:26:52;;;;;;;8.93;2.27;;;;;;;-3.08;56.31;101601.34;126300;1099;104235;-79
2022/01/19 01:29:24;;;;;;;5.40;2.20;;;;;;;-3.11;56.89;101592.41;126342;1099;101760;-79
2022/01/19 01:31:55;;;;;;;4.17;1.93;;;;;;;-3.13;56.85;101599.02;126191;1099;104299;-80
2022/01/19 01:34:28;;;;;;;8.33;2.30;;;;;;;-3.14;57.04;101589.52;126317;1099;104309;-79
2022/01/19 01:37:00;;;;;;;5.97;2.30;;;;;;;-3.17;56.53;101599.45;126298;1099;104139;-79
2022/01/19 01:39:32;;;;;;;4.60;2.20;;;;;;;-3.21;56.43;101599.86;126237;1099;104171;-81
2022/01/19 01:42:11;;;;;;;4.90;1.90;;;;;;;-3.23;56.84;101591.99;126339;1098;104197;-80
2022/01/19 01:44:46;;;;;;;5.40;2.13;;;;;;;-3.24;56.89;101605.59;126367;1099;102973;-80
2022/01/19 01:47:25;;;;;;;5.37;2.40;;;;;;;-3.26;56.68;101612.20;126260;1099;104352;-80
2022/01/19 01:55:36;;;;;;;6.30;2.10;;;;;;;-3.30;58.18;101610.97;125524;1099;104211;-80
2022/01/19 01:58:08;;;;;;;9.80;2.67;;;;;;;-3.31;57.30;101615.94;126291;1099;104230;-80
2022/01/19 02:00:42;;;;;;;5.10;2.03;;;;;;;-3.31;57.64;101618.50;126322;1099;104140;-79
2022/01/19 02:03:15;;;;;;;6.72;2.00;;;;;;;-3.34;57.31;101615.59;126326;1099;102943;-80
2022/01/19 02:08:57;;;;;;;5.90;2.53;;;;;;;-3.39;57.67;101612.53;125297;1102;104226;-79
2022/01/19 02:15:49;;;;;;;5.75;2.50;;;;;;;-3.40;58.76;101631.23;125316;1102;104407;-79
2022/01/19 02:23:18;;;;;;;8.80;2.70;;;;;;;-3.52;58.74;101641.08;126365;1099;104268;-79
2022/01/19 02:25:56;;;;;;;4.10;2.20;;;;;;;-3.56;58.81;101638.91;126330;1099;104143;-80
2022/01/19 02:31:53;;;;;;;5.43;1.97;;;;;;;-3.59;58.64;101629.97;126221;1099;104220;-81
2022/01/19 02:40:12;;;;;;;6.57;2.10;;;;;;;-3.61;59.11;101627.24;126254;1098;104140;-79
2022/01/19 02:43:03;;;;;;;5.73;2.00;;;;;;;-3.61;58.33;101630.70;126254;1099;104252;-79
2022/01/19 02:51:15;;;;;;;5.17;2.27;;;;;;;-3.65;58.14;101640.46;126315;1099;104328;-79
2022/01/19 02:53:48;;;;;;;9.23;2.40;;;;;;;-3.67;58.74;101627.47;126290;1099;104143;-80
2022/01/19 02:56:26;;;;;;;5.42;1.77;;;;;;;-3.66;58.93;101634.43;126319;1099;104162;-79
2022/01/19 02:59:09;;;;;;;8.20;2.20;;;;;;;-3.68;59.17;101633.33;126250;1099;104149;-80
2022/01/19 03:10:11;;;;;;;9.60;2.70;;;;;;;-3.70;60.42;101642.52;126295;1099;104213;-80
2022/01/19 03:12:43;;;;;;;4.47;2.30;;;;;;;-3.69;59.76;101651.15;126302;1099;104050;-81
2022/01/19 03:15:16;;;;;;;5.63;2.37;;;;;;;-3.72;59.30;101644.02;126286;1099;104293;-79
2022/01/19 03:17:47;;;;;;;10.93;2.60;;;;;;;-3.74;59.90;101645.51;126190;1099;104309;-80
2022/01/19 03:20:19;;;;;;;7.10;2.40;;;;;;;-3.76;59.31;101639.27;126294;1099;104278;-79
2022/01/19 03:23:00;;;;;;;6.10;2.40;;;;;;;-3.78;59.67;101656.16;126301;1099;104163;-79
2022/01/19 03:25:36;;;;;;;5.77;2.13;;;;;;;-3.80;59.78;101652.52;126200;1099;104198;-80
2022/01/19 03:28:09;;;;;;;7.80;2.57;;;;;;;-3.81;59.33;101653.25;126230;1099;104152;-79
2022/01/19 03:30:40;;;;;;;13.10;2.53;;;;;;;-3.83;59.65;101655.64;126375;1099;104142;-79
2022/01/19 03:33:12;;;;;;;8.60;2.43;;;;;;;-3.83;60.03;101650.52;126159;1099;104286;-79
2022/01/19 03:35:45;;;;;;;4.17;2.30;;;;;;;-3.83;60.15;101653.08;126045;1099;104210;-79
2022/01/19 03:38:17;;;;;;;5.80;2.02;;;;;;;-3.82;59.69;101651.42;126153;1099;104220;-79
2022/01/19 03:40:49;;;;;;;7.13;2.43;;;;;;;-3.82;59.93;101656.55;126079;1099;104143;-79
2022/01/19 03:43:20;;;;;;;5.23;2.23;;;;;;;-3.83;60.73;101659.88;126102;1099;104191;-79
2022/01/19 03:46:13;;;;;;;4.77;2.37;;;;;;;-3.86;60.62;101652.73;126226;1099;104198;-79
2022/01/19 03:48:53;;;;;;;5.50;2.13;;;;;;;-3.89;60.74;101647.27;126207;1099;104159;-79
2022/01/19 03:51:25;;;;;;;8.77;2.37;;;;;;;-3.89;59.89;101642.14;126403;1099;104255;-79
2022/01/19 03:53:57;;;;;;;6.10;2.40;;;;;;;-3.88;60.69;101643.04;126276;1099;104146;-79
2022/01/19 03:56:29;;;;;;;7.30;2.40;;;;;;;-3.90;60.46;101652.22;126287;1099;104216;-79
2022/01/19 03:59:00;;;;;;;6.07;1.97;;;;;;;-3.90;61.15;101667.61;126321;1099;104297;-79
2022/01/19 04:01:32;;;;;;;5.80;2.30;;;;;;;-3.91;61.13;101647.83;126269;1099;104182;-79
2022/01/19 04:04:25;;;;;;;9.10;2.50;;;;;;;-3.92;60.71;101657.19;126139;1099;104611;-79
2022/01/19 04:07:01;;;;;;;8.37;2.30;;;;;;;-3.95;60.90;101654.28;125965;1099;104159;-79
2022/01/19 04:09:33;;;;;;;6.43;2.33;;;;;;;-3.93;60.75;101657.02;126088;1099;104194;-79
2022/01/19 04:12:08;;;;;;;6.63;2.60;;;;;;;-3.95;60.33;101659.41;126054;1099;104364;-79
2022/01/19 04:14:39;;;;;;;7.90;2.50;;;;;;;-3.97;60.86;101664.36;125210;1099;104178;-79
2022/01/19 04:17:13;;;;;;;8.97;2.47;;;;;;;-3.98;61.26;101665.09;125175;1099;104326;-79
2022/01/19 04:19:48;;;;;;;5.63;2.43;;;;;;;-3.97;60.90;101676.28;125256;1099;104149;-79
2022/01/19 04:22:24;;;;;;;7.03;2.90;;;;;;;-3.97;61.19;101666.92;125343;1099;104172;-79
2022/01/19 04:24:59;;;;;;;8.68;2.83;;;;;;;-3.99;61.63;101676.11;125380;1099;104184;-80
2022/01/19 04:27:33;;;;;;;9.40;2.97;;;;;;;-3.99;61.80;101678.67;125234;1099;104166;-79
2022/01/19 04:30:11;;;;;;;8.13;2.80;;;;;;;-4.01;61.05;101672.44;125231;1099;104448;-80
2022/01/19 04:33:06;;;;;;;11.07;3.03;;;;;;;-4.04;61.16;101664.41;125391;1098;104370;-80
2022/01/19 04:35:51;;;;;;;7.63;2.90;;;;;;;-4.04;61.48;101676.32;125248;1102;104198;-79
2022/01/19 04:39:18;;;;;;;6.67;2.73;;;;;;;-4.03;61.26;101665.34;125372;1102;104274;-80
2022/01/19 04:44:54;;;;;;;6.70;2.60;;;;;;;-4.07;61.72;101668.28;125341;1102;104254;-79
2022/01/19 05:01:50;;;;;;;9.27;2.63;;;;;;;-4.16;61.77;101678.40;125217;1099;104393;-79
2022/01/19 05:04:50;;;;;;;9.43;3.03;;;;;;;-4.18;61.41;101667.97;125418;1099;104152;-79
2022/01/19 05:07:42;;;;;;;7.30;2.97;;;;;;;-4.18;62.04;101674.77;125777;1099;104149;-79
2022/01/19 05:15:56;;;;;;;9.33;3.20;;;;;;;-4.22;62.33;101673.52;125299;1099;104258;-80
2022/01/19 05:18:27;;;;;;;;;;;;;;;-4.24;62.88;101685.26;125315;1099;104150;-80
2022/01/19 05:20:59;;;;;;;8.80;3.17;;;;;;;-4.26;62.29;101672.99;125276;1102;104447;-81
2022/01/19 05:23:56;;;;;;;7.50;2.90;;;;;;;-4.28;62.54;101672.82;125236;1099;101850;-80
2022/01/19 05:26:28;;;;;;;6.97;2.87;;;;;;;-4.27;63.15;101689.10;125376;1099;104217;-80
2022/01/19 05:29:00;;;;;;;7.33;2.93;;;;;;;-4.27;62.19;101666.03;125144;1102;104149;-80
2022/01/19 05:31:38;;;;;;;8.13;2.80;;;;;;;-4.28;62.22;101667.69;125195;1099;104187;-80
2022/01/19 05:34:09;;;;;;;7.80;2.50;;;;;;;-4.27;62.52;101677.22;125247;1099;104351;-80
2022/01/19 05:36:53;;;;;;;10.58;3.45;;;;;;;-4.28;63.02;101679.61;125314;1099;104185;-80
2022/01/19 05:39:44;;;;;;;11.90;3.30;;;;;;;-4.28;63.04;101684.73;125356;1099;104152;-80
2022/01/19 05:42:23;;;;;;;8.23;2.70;;;;;;;-4.29;62.59;101685.46;125355;1099;104146;-80
2022/01/19 05:44:58;;;;;;;9.97;2.90;;;;;;;-4.30;63.16;101697.38;125828;1099;104219;-80
2022/01/19 05:47:30;;;;;;;9.20;3.27;;;;;;;-4.31;62.83;101692.97;126242;1098;104156;-80
2022/01/19 05:50:03;;;;;;;11.10;3.40;;;;;;;-4.32;62.63;101696.27;126167;1099;104249;-78
2022/01/19 05:52:35;;;;;;;10.10;3.42;;;;;;;-4.34;63.59;101698.65;126189;1099;104592;-78
2022/01/19 05:55:08;;;;;;;12.10;3.80;;;;;;;-4.35;62.71;101707.10;126168;1099;104322;-78
2022/01/19 05:57:40;;;;;;;11.93;3.62;;;;;;;-4.34;63.48;101723.38;125512;1099;104136;-78
2022/01/19 06:00:14;;;;;;;12.03;3.63;;;;;;;-4.36;63.86;101730.89;126121;1099;104418;-79
2022/01/19 06:02:54;;;;;;;8.33;3.20;;;;;;;-4.37;64.35;101740.97;126118;1099;104188;-79
2022/01/19 06:05:45;;;;;;;9.13;3.67;;;;;;;-4.38;63.18;101742.63;126247;1099;104141;-79
2022/01/19 06:08:41;;;;;;;8.97;3.40;;;;;;;-4.39;63.01;101739.89;126122;1099;104255;-78
2022/01/19 06:11:13;;;;;;;8.20;3.17;;;;;;;-4.38;63.72;101754.50;125964;1099;104149;-79
2022/01/19 06:13:47;;;;;;;9.00;3.73;;;;;;;-4.37;62.83;101753.78;125274;1099;104335;-82
2022/01/19 06:16:19;;;;;;;12.83;4.40;;;;;;;-4.37;62.99;101756.34;125967;1099;104242;-81
2022/01/19 06:18:54;;;;;;;11.60;3.70;;;;;;;-4.34;63.67;101756.69;126196;1099;104141;-79
2022/01/19 06:21:30;;;;;;;13.60;3.60;;;;;;;-4.29;62.92;101758.13;126131;1099;104156;-82
2022/01/19 06:24:04;;;;;;;14.20;4.20;;;;;;;-4.27;62.97;101755.73;126112;1099;104194;-80
2022/01/19 06:26:38;;;;;;;;;;;;;;;-4.25;63.25;101764.53;126213;1099;104239;-79
2022/01/19 06:29:10;;;;;;;12.65;3.60;;;;;;;-4.23;63.45;101768.17;125951;1099;104146;-79
2022/01/19 06:31:43;;;;;;;17.80;4.30;;;;;;;-4.21;63.05;101761.56;125923;1099;104329;-79
2022/01/19 06:34:22;;;;;;;12.63;4.10;;;;;;;-4.13;63.04;101758.22;125835;1099;109426;-80
2022/01/19 06:37:25;;;;;;;16.70;4.27;;;;;;;-4.03;62.74;101760.20;125583;1099;104239;-81
2022/01/19 06:40:14;;;;;;;13.27;4.20;;;;;;;-3.91;63.43;101763.23;125334;1099;103055;-81
2022/01/19 06:42:46;;;;;;;14.00;4.53;;;;;;;-3.80;62.79;101753.45;125701;1099;104211;-82
2022/01/19 06:45:23;;;;;;;12.47;3.90;;;;;;;-3.71;63.08;101761.29;125851;1099;104162;-82
2022/01/19 06:47:58;;;;;;;12.23;4.40;;;;;;;-3.64;63.88;101750.95;125655;1099;104153;-81
2022/01/19 06:50:40;;;;;;;15.65;4.35;;;;;;;-3.53;63.61;101756.39;125804;1099;104185;-84
2022/01/19 06:53:20;;;;;;;10.27;3.93;;;;;;;-3.46;63.13;101764.94;125554;1099;103005;-82
2022/01/19 06:58:53;;;;;;;11.30;4.10;;;;;;;-3.35;63.14;101766.14;125175;1099;104226;-80
2022/01/19 07:01:53;;;;;;;13.07;3.90;;;;;;;-3.32;63.36;101761.34;125791;1099;104146;-81
2022/01/19 07:04:39;;;;;;;10.50;3.90;;;;;;;-3.33;64.04;101756.94;125743;1099;104259;-83
2022/01/19 07:07:15;;;;;;;11.37;3.77;;;;;;;-3.32;63.75;101763.91;126105;1098;104223;-80
2022/01/19 07:10:00;;;;;;;10.90;4.00;;;;;;;-3.29;63.29;101768.45;125574;1099;104151;-80
2022/01/19 07:12:33;;;;;;;11.17;3.93;;;;;;;-3.27;63.79;101756.72;125692;1099;104188;-80
2022/01/19 07:15:10;;;;;;;11.70;4.30;;;;;;;-3.22;63.66;101770.97;125688;1099;109101;-82
2022/01/19 07:17:47;;;;;;;15.27;4.33;;;;;;;-3.18;63.57;101751.67;125802;1099;104182;-81
2022/01/19 07:20:23;;;;;;;10.07;3.73;;;;;;;-3.12;63.28;101767.75;125661;1099;104168;-80
2022/01/19 07:22:56;;;;;;;14.50;4.17;;;;;;;-3.04;63.40;101768.60;125599;1099;104214;-83
2022/01/19 07:25:33;;;;;;;10.50;3.90;;;;;;;-2.99;63.66;101768.38;125629;1099;102314;-82
2022/01/19 07:28:11;;;;;;;9.83;3.43;;;;;;;-3.01;63.50;101771.51;125100;1099;104692;-79
2022/01/19 07:30:46;;;;;;;16.03;4.47;;;;;;;-3.04;64.11;101769.50;124926;1099;104165;-79
2022/01/19 07:33:22;;;;;;;16.50;4.53;;;;;;;-3.01;64.38;101762.13;125020;1102;104332;-80
2022/01/19 07:35:53;;;;;;;;;;;;;;;-2.91;63.36;101762.41;125080;1099;104187;-81
2022/01/19 07:38:26;;;;;;;12.40;3.90;;;;;;;-2.80;64.01;101766.16;125000;1099;104339;-80
2022/01/19 07:41:11;;;;;;;11.03;4.17;;;;;;;-2.74;64.50;101765.92;125025;1102;104172;-84
2022/01/19 07:43:55;;;;;;;13.20;4.50;;;;;;;-2.69;64.39;101753.58;124926;1099;104345;-81
2022/01/19 07:46:55;;;;;;;12.35;3.80;;;;;;;-2.64;63.86;101744.70;124980;1099;104261;-80
2022/01/19 07:49:51;;;;;;;12.03;3.97;;;;;;;-2.54;63.27;101755.20;124892;1102;104254;-79
2022/01/19 07:52:40;;;;;;;;;;;;;;;-2.49;64.45;101755.70;124965;1099;104881;-81
2022/01/19 07:55:23;;;;;;;13.00;3.97;;;;;;;-2.40;63.12;101760.20;125185;1099;104153;-80
2022/01/19 07:58:29;;;;;;;12.27;3.63;;;;;;;-2.32;64.41;101753.30;125078;1099;104226;-82
2022/01/19 08:01:36;;;;;;;13.40;4.20;;;;;;;-2.18;63.27;101758.25;125105;1102;104169;-78
2022/01/19 08:04:21;;;;;;;9.90;3.60;;;;;;;-2.09;64.05;101749.68;125011;1101;104325;-79
2022/01/19 08:06:54;;;;;;;12.85;4.30;;;;;;;-2.02;63.22;101744.45;125173;1099;104299;-79
2022/01/19 08:09:35;;;;;;;12.40;4.03;;;;;;;-1.91;63.20;101751.63;125580;1099;104236;-80
2022/01/19 08:12:27;;;;;;;;;;;;;;;;;;;;;
2022/01/19 08:15:05;;;;;;;11.13;3.80;;;;;;;-1.73;63.91;101729.50;125726;1099;102851;-80
2022/01/19 08:17:42;;;;;;;16.03;4.87;;;;;;;-1.68;63.73;101720.59;125818;1099;104236;-79
2022/01/19 08:20:30;;;;;;;14.67;4.03;;;;;;;-1.66;62.94;101728.47;125916;1099;104233;-80
2022/01/19 08:23:08;;;;;;;13.37;4.53;;;;;;;-1.54;63.73;101728.81;125705;1100;104169;-80
2022/01/19 08:25:55;;;;;;;14.47;4.97;;;;;;;-1.36;64.00;101734.96;125733;1099;104249;-82
2022/01/19 08:28:29;;;;;;;17.33;4.73;;;;;;;-1.22;64.11;101716.67;125746;1099;104204;-81
2022/01/19 08:31:02;;;;;;;13.23;4.57;;;;;;;-1.10;62.61;101727.34;125164;1099;102917;-79
2022/01/19 08:33:57;;;;;;;14.73;4.30;;;;;;;-0.99;63.01;101723.27;125594;1099;104171;-79
2022/01/19 08:36:44;;;;;;;10.43;3.70;;;;;;;-0.87;61.83;101713.27;125771;1099;111426;-80
2022/01/19 08:39:26;;;;;;;13.13;3.83;;;;;;;-0.77;61.43;101708.30;125986;1099;104172;-80
2022/01/19 08:42:04;;;;;;;11.97;3.87;;;;;;;-0.75;61.89;101683.58;125906;1099;104210;-80
2022/01/19 08:44:39;;;;;;;12.33;4.15;;;;;;;-0.71;61.57;101677.98;125856;1099;104147;-79
2022/01/19 08:47:27;;;;;;;9.73;3.90;;;;;;;-0.59;62.21;101667.99;125939;1099;104219;-79
2022/01/19 08:50:29;;;;;;;14.43;4.20;;;;;;;-0.51;62.08;101669.64;125760;1098;104159;-79
2022/01/19 08:53:10;;;;;;;12.77;4.43;;;;;;;-0.43;61.96;101676.45;125969;1099;104168;-80
2022/01/19 08:55:50;;;;;;;12.03;4.00;;;;;;;-0.48;61.28;101676.75;125152;1099;104365;-82
2022/01/19 08:58:29;;;;;;;14.00;4.57;;;;;;;-0.55;60.66;101676.18;124998;1102;104175;-82
2022/01/19 09:01:07;;;;;;;15.77;4.87;;;;;;;-0.55;61.55;101678.76;124977;1099;104358;-81
2022/01/19 09:03:45;;;;;;;13.90;5.27;;;;;;;-0.53;61.48;101673.75;125036;1099;104332;-82
2022/01/19 09:06:24;;;;;;;13.67;4.00;;;;;;;-0.44;61.52;101684.94;125039;1099;104179;-82
2022/01/19 09:08:58;;;;;;;14.73;4.27;;;;;;;-0.36;61.42;101688.28;125021;1099;104229;-83
2022/01/19 09:11:51;;;;;;;10.80;3.73;;;;;;;-0.30;60.23;101677.66;124988;1102;102135;-82
2022/01/19 09:14:31;;;;;;;11.93;4.40;;;;;;;-0.21;61.36;101656.24;124967;1102;104230;-80
2022/01/19 09:17:20;;;;;;;9.90;3.63;;;;;;;-0.14;60.65;101668.09;125077;1099;104163;-82
2022/01/19 09:19:57;;;;;;;10.70;4.07;;;;;;;-0.06;61.10;101649.09;125028;1102;104176;-81
2022/01/19 09:22:49;;;;;;;11.20;4.05;;;;;;;0.02;59.31;101649.83;125128;1099;104152;-81
2022/01/19 09:25:41;;;;;;;11.40;4.10;;;;;;;0.09;59.30;101661.64;125265;1099;104649;-82
2022/01/19 09:28:29;;;;;;;15.07;4.40;;;;;;;0.13;60.84;101640.54;125240;1102;104255;-83
2022/01/19 09:31:28;;;;;;;10.90;4.00;;;;;;;0.16;59.50;101640.83;125199;1102;104372;-83
2022/01/19 09:34:28;;;;;;;9.30;3.90;;;;;;;0.18;60.58;101636.72;125494;1099;104407;-82
2022/01/19 09:37:24;;;;;;;13.97;4.27;;;;;;;0.25;59.42;101651.11;125930;1099;104166;-82
2022/01/19 09:40:03;;;;;;;10.13;3.73;;;;;;;0.27;60.11;101637.59;126042;1099;104155;-82
2022/01/19 09:42:46;;;;;;;11.63;3.43;;;;;;;0.27;60.12;101636.70;125980;1099;104346;-82
2022/01/19 09:45:21;;;;;;;14.23;4.10;;;;;;;0.31;59.66;101637.13;125173;1099;104224;-83
2022/01/19 09:48:03;;;;;;;9.67;4.00;;;;;;;0.39;58.70;101649.84;125772;1099;104171;-81
2022/01/19 09:50:48;;;;;;;13.70;4.00;;;;;;;0.34;59.29;101634.84;126134;1099;104209;-81
2022/01/19 09:53:27;;;;;;;15.33;4.50;;;;;;;0.33;58.59;101650.19;126001;1099;104246;-80
2022/01/19 09:56:07;;;;;;;15.97;4.60;;;;;;;0.42;59.24;101639.80;125967;1099;104280;-78
2022/01/19 09:58:40;;;;;;;11.90;4.00;;;;;;;0.50;59.81;101636.29;125822;1099;104174;-81
2022/01/19 10:01:19;;;;;;;11.33;4.08;;;;;;;0.60;58.92;101631.20;125871;1099;104224;-80
2022/01/19 10:03:57;;;;;;;12.93;4.07;;;;;;;0.68;58.99;101629.33;125936;1099;104376;-79
2022/01/19 10:06:30;;;;;;;11.97;3.87;;;;;;;0.76;58.51;101635.22;125850;1099;104283;-80
2022/01/19 10:09:03;;;;;;;12.30;3.80;;;;;;;0.82;58.03;101633.20;125772;1099;104163;-79
2022/01/19 10:17:38;;;;;;;12.07;4.10;;;;;;;0.96;57.22;101626.73;125911;1099;104294;-82
2022/01/19 10:20:30;;;;;;;15.13;4.80;;;;;;;1.03;57.60;101627.44;125897;1099;104237;-79
2022/01/19 10:23:15;;;;;;;12.40;4.13;;;;;;;1.16;56.15;101616.53;126042;1099;104220;-83
2022/01/19 10:25:56;;;;;;;12.83;4.37;;;;;;;1.26;55.39;101607.92;125818;1099;102334;-79
2022/01/19 10:28:55;;;;;;;13.47;4.20;;;;;;;1.33;56.52;101597.38;125923;1099;104542;-82
2022/01/19 10:34:24;;;;;;;12.77;4.10;;;;;;;1.46;56.42;101594.20;125735;1099;104126;-79
2022/01/19 10:37:10;;;;;;;15.47;4.47;;;;;;;1.44;56.62;101599.23;125778;1099;104149;-81
2022/01/19 10:39:51;;;;;;;11.83;4.60;;;;;;;1.41;56.21;101582.55;125700;1099;110841;-80
2022/01/19 10:42:30;;;;;;;15.97;5.53;;;;;;;1.43;55.92;101586.17;126018;1099;104296;-81
2022/01/19 10:45:09;;;;;;;15.07;4.83;;;;;;;1.41;55.80;101579.97;125204;1099;104172;-82
2022/01/19 10:47:53;;;;;;;14.53;4.57;;;;;;;1.37;55.44;101571.03;125794;1099;104246;-82
2022/01/19 10:50:28;;;;;;;12.57;4.40;;;;;;;1.34;55.78;101585.34;125685;1099;104213;-81
2022/01/19 10:56:38;;;;;;;9.70;4.20;;;;;;;1.26;55.50;101576.89;125038;1102;104974;-83
2022/01/19 10:59:29;;;;;;;12.07;4.80;;;;;;;1.32;55.16;101572.27;125089;1102;104270;-80
2022/01/19 11:02:12;;;;;;;13.30;4.70;;;;;;;1.38;56.14;101580.58;125096;1102;104459;-80
2022/01/19 11:04:48;;;;;;;11.83;4.60;;;;;;;1.51;55.71;101569.68;125024;1102;104220;-79
2022/01/19 11:07:27;;;;;;;15.33;5.00;;;;;;;1.70;56.45;101560.92;124942;1103;104371;-82
2022/01/19 11:10:10;;;;;;;13.33;5.00;;;;;;;1.85;56.43;101558.80;125001;1102;104357;-79
2022/01/19 11:12:49;;;;;;;17.87;5.37;;;;;;;1.94;56.54;101554.42;124985;1102;104367;-78
2022/01/19 11:15:23;;;;;;;14.10;5.20;;;;;;;1.95;56.87;101551.97;124965;1102;104258;-79
2022/01/19 11:18:00;;;;;;;13.07;5.30;;;;;;;1.94;56.78;101557.91;124920;1102;104229;-81
2022/01/19 11:20:41;;;;;;;14.33;5.03;;;;;;;1.92;56.70;101548.22;124863;1102;104239;-81
2022/01/19 11:23:34;;;;;;;15.90;5.20;;;;;;;1.95;57.21;101558.84;124912;1102;104418;-80
2022/01/19 11:26:14;;;;;;;15.95;6.05;;;;;;;1.98;57.35;101549.64;124855;1102;104384;-82
2022/01/19 11:28:49;;;;;;;16.23;5.73;;;;;;;1.98;57.25;101548.75;125579;1099;104173;-81
2022/01/19 11:31:48;;;;;;;;;;;;;;;;;;;;;
2022/01/19 11:34:42;;;;;;;18.43;6.00;;;;;;;1.93;57.93;101539.66;125607;1099;104229;-78
2022/01/19 11:37:15;;;;;;;18.07;6.47;;;;;;;1.83;58.04;101540.55;125613;1099;104210;-79
2022/01/19 11:40:10;;;;;;;16.83;6.33;;;;;;;1.73;57.52;101546.60;125634;1099;104205;-80
2022/01/19 11:42:43;;;;;;;15.70;6.33;;;;;;;1.75;57.73;101539.88;125611;1099;104630;-80
2022/01/19 11:45:51;;;;;;;21.87;6.80;;;;;;;1.84;58.38;101544.03;125708;1099;104245;-82
2022/01/19 11:48:28;;;;;;;17.60;6.40;;;;;;;1.82;58.06;101537.81;125521;1099;104164;-80
2022/01/19 11:54:22;;;;;;;19.17;7.40;;;;;;;1.87;58.77;101541.70;125801;1099;104241;-79
2022/01/19 11:57:12;;;;;;;21.97;7.60;;;;;;;1.92;58.57;101543.94;125825;1099;104197;-81
2022/01/19 12:00:18;;;;;;;20.20;7.10;;;;;;;1.94;59.08;101554.42;126122;1099;104175;-81
2022/01/19 12:02:58;;;;;;;22.90;8.70;;;;;;;1.86;59.37;101538.22;126215;1099;104251;-82
2022/01/19 12:05:46;;;;;;;21.83;8.30;;;;;;;1.83;59.22;101537.05;126131;1099;104216;-80
2022/01/19 12:08:43;;;;;;;23.47;9.00;;;;;;;1.84;58.96;101534.61;125876;1099;104185;-80
2022/01/19 12:11:28;;;;;;;24.53;9.17;;;;;;;1.89;59.51;101532.41;125926;1099;104178;-81
2022/01/19 12:14:11;;;;;;;23.97;9.80;;;;;;;1.89;59.49;101519.47;125975;1099;104191;-80
2022/01/19 12:17:03;;;;;;;25.70;10.00;;;;;;;1.83;59.81;101517.25;125845;1099;104457;-81
2022/01/19 12:19:49;;;;;;;26.67;10.63;;;;;;;1.77;59.18;101509.84;125223;1099;104293;-81
2022/01/19 12:22:28;;;;;;;23.20;9.37;;;;;;;1.74;59.63;101506.98;125238;1099;104198;-83
2022/01/19 12:25:06;;;;;;;25.97;9.67;;;;;;;1.75;59.72;101513.99;125975;1099;104685;-83
2022/01/19 12:28:01;;;;;;;27.60;10.03;;;;;;;1.77;59.05;101512.44;125365;1099;104178;-83
2022/01/19 12:30:39;;;;;;;26.57;10.93;;;;;;;1.77;60.49;101517.61;125195;1099;104226;-83
2022/01/19 12:33:17;;;;;;;24.63;10.63;;;;;;;1.77;60.02;101508.95;125782;1099;102422;-82
2022/01/19 12:35:52;;;;;;;25.27;10.13;;;;;;;1.81;59.72;101516.22;125251;1099;104454;-81
2022/01/19 12:38:33;;;;;;;28.37;11.23;;;;;;;1.83;60.04;101516.36;125225;1099;104178;-79
2022/01/19 12:41:20;;;;;;;25.20;9.60;;;;;;;1.88;60.27;101512.47;125985;1099;104306;-79
2022/01/19 12:44:35;;;;;;;28.07;10.73;;;;;;;1.91;60.14;101504.97;125863;1099;110107;-80
2022/01/19 12:47:55;;;;;;;26.40;10.47;;;;;;;1.97;60.81;101506.39;125926;1099;104214;-78
2022/01/19 12:50:51;;;;;;;25.10;11.07;;;;;;;2.02;59.96;101504.20;125967;1099;104182;-79
2022/01/19 12:53:30;;;;;;;27.00;10.17;;;;;;;2.07;60.70;101507.19;126076;1099;104147;-81
2022/01/19 12:56:12;;;;;;;25.40;10.33;;;;;;;2.07;60.52;101515.89;126042;1099;104172;-81
2022/01/19 12:58:49;;;;;;;29.27;12.20;;;;;;;2.10;60.49;101505.80;125134;1099;104165;-82
2022/01/19 13:01:30;;;;;;;29.50;10.27;;;;;;;2.12;60.67;101518.84;125987;1099;104274;-81
2022/01/19 13:08:08;;;;;;;;;;;;;;;1.97;61.31;101514.16;125128;1102;104452;-82
2022/01/19 13:14:00;;;;;;;22.77;9.48;;;;;;;1.88;61.44;101510.78;125154;1101;104182;-82
2022/01/19 13:16:55;;;;;;;24.25;9.68;;;;;;;1.82;61.29;101502.48;125189;1102;104210;-82
2022/01/19 13:19:48;;;;;;;27.23;10.70;;;;;;;1.72;61.23;101492.13;125033;1102;104440;-82
2022/01/19 13:22:29;;;;;;;26.30;10.40;;;;;;;1.65;61.31;101485.48;125082;1102;104424;-80
2022/01/19 13:25:18;;;;;;;25.03;10.70;;;;;;;1.58;61.18;101481.47;125046;1102;104301;-82
2022/01/19 13:27:57;;;;;;;23.47;10.30;;;;;;;1.55;61.11;101485.48;124972;1102;104172;-80
2022/01/19 13:30:41;;;;;;;24.97;11.00;;;;;;;1.51;61.35;101470.45;125070;1102;104210;-81
2022/01/19 13:33:14;;;;;;;24.65;10.55;;;;;;;1.47;61.36;101477.05;125083;1102;104434;-80
2022/01/19 13:36:05;;;;;;;27.33;11.10;;;;;;;1.42;61.23;101461.13;125037;1102;104204;-81
2022/01/19 13:38:42;;;;;;;25.23;10.40;;;;;;;1.39;61.34;101454.78;125123;1102;104287;-80
2022/01/19 13:41:27;;;;;;;26.23;10.70;;;;;;;1.36;61.22;101457.10;125129;1102;104159;-81